Welcome to our Virtual Airline
Sign-in:

Flight MFC691

  • Submitted By: Danny Rice
  • Departure Airport: Point Baker SPB (KPB)
  • Arrival Airport: Cape Pole SPB (Z71)
  • Aircraft: BELL 407 (N020MM)
  • Flight Time: 00.34.58
  • Date Submitted: 2018/05/14
  • Route: FOLLOW THE TOUR FP
  • Status: Accepted
Flight Details
Gross Revenue:
(5 load / $ 49.00 per unit
$ 245.00
Fuel Cost:
(43.5449 fuel used @ 5.1 / unit)
$ 222.08

Additional Log Information:

View Log

FS[06:38] ----- Flight Opened -----
FS[06:38] Cigar Box - 1.1.4.0
FS[06:38] FS: Prepar3D V4
FS[06:38] FSUIPC: v5.13
FS[06:38] Flight Number: MFC691
FS[06:38] FS Aircraft: Bell 407 N020MM
FS[06:38] FS Model: B407
FS[06:38] FS Type: Bell
FS[06:38] Departure: KPB
FS[06:38] Arrival: Z71
FS[06:38] Flight Level: 1500
FS[06:38] Flight Type: H
FS[06:38] Passengers: 5
FS[06:38] FOB: 863 lbs
FS[06:38] Gate: n/a
FS[06:38] NOTE: Parking Brake Ignored
FS[06:38] Crash Detection: Disabled
FS[06:38] Engines: 1 Helo
FS[06:38] NOTE: Boarding has started
FS[06:38] Engine 1: Started
FS[06:38] Light Data: Beacon ON
FS[06:38] Light Data: Landing lights ON
FS[06:38] Main Door Closed
FS[06:38] COM1: 128.25
FS[06:38] COM2: 127.80
FS[06:38] Transponder: 1200
FS[06:38] NAV1: 113.70
FS[06:38] NAV2: 110.60
FS[06:38] ADF1: 284.0
FS[06:38] ADF2: 240.0
FS[06:38] Navigation Mode: NAV
FS[06:46] Navigation Mode: GPS
FS[06:47] NOTE: Taxi started
FS[06:47] NOTE: ----- TAKE OFF -----
FS[06:47] GS: 31 knots
FS[06:47] TAS: 35 knots
FS[06:47] IAS: 34 knots
FS[06:47] VS: 203 fpm
FS[06:47] FOB: 843 lbs
FS[06:47] Heading: 355°
FS[06:47] Pitch: 3°
FS[06:47] Bank: 0°
FS[06:47] Aircraft Weight: 3681.06 lbs
FS[06:47] Nearest Airport: KPB
FS[06:47] Distance: 0.24 miles
FS[06:47] Runway: ???
FS[06:47] Ground Surface: Water
FS[06:47] Ground Condition: Normal
FS[06:47] NOTE: Weather Report
FS[06:47] Wind Heading: 19°
FS[06:47] Wind Speed: 5 knots
FS[06:47] OAT: 21° C
FS[06:47] TAT: 21° C
FS[06:47] Precipitation: None
FS[06:47] Dew Point: 14° C
FS[06:47] Visibility: 7 miles
FS[06:47] METAR: KPBF 141453Z AUTO 26007KT 210V290 10SM CLR 28/21 A3002 RMK AO2 SLP163 T02780211 58000KPBG 141453Z AUTO 14015KT 10SM CLR 18/11 A2989 RMK AO2 SLP122 T01780106 56015KPBH 141535Z AUTO 21005KT 10SM BKN120 21/11 A2992 RMK AO2 T02050110KPBI 141536Z 14017G25KT 4SM R10L/2800VP6000FT TSRA BR BKN018CB BKN031 BKN046 23/23 A2997 RMK AO2 PK WND 15035/1519 LTG DSNT W RAB20 TSB07 OCNL LTGICCG OHD-ALQDS TS OHD-ALQDS MOV N CB DSNT NE SE W P0034 T02280228 $KPBX 141535Z AUTO 00000KT 10SM SCT048 BKN065 26/19 A3011 RMK AO2 T02620191
FS[06:47] NOTE: Climb started
FS[06:47] View Mode: Virtual Cockpit
FS[06:47] Autopilot: Engaged
FS[06:47] AGL: 262 ft
FS[06:47] AMSL: 262 ft
FS[06:47] Turbulence: Light
FS[06:48] NOTE: TOC reached
FS[06:48] NOTE: Cruise started
FS[06:48] GS: 124 knots
FS[06:48] TAS: 123 knots
FS[06:48] IAS: 121 knots
FS[06:48] VS: 190 fpm
FS[06:48] FOB: 839 lbs
FS[06:48] Heading: 139°
FS[06:48] Pitch: 1°
FS[06:48] Bank: -4°
FS[06:48] Aircraft Weight: 3676.90 lbs
FS[06:52] Autopilot: Disengaged
FS[06:52] AGL: 715 ft
FS[06:52] AMSL: 3356 ft
FS[06:52] Autopilot: Engaged
FS[06:52] AGL: 629 ft
FS[06:52] AMSL: 3398 ft
FS[07:07] Recovery: Flight Saved
FS[07:09] NOTE: TOD reached
FS[07:09] NOTE: Descent started
FS[07:09] GS: 120 knots
FS[07:09] TAS: 123 knots
FS[07:09] IAS: 119 knots
FS[07:09] VS: -820 fpm
FS[07:09] FOB: 776 lbs
FS[07:09] Heading: 307°
FS[07:09] Pitch: 3°
FS[07:09] Bank: -3°
FS[07:09] Aircraft Weight: 3615.00 lbs
FS[07:09] NOTE: On approach
FS[07:10] Autopilot: Disengaged
FS[07:10] AGL: 643 ft
FS[07:10] AMSL: 643 ft
FS[07:13] NOTE: ----- LANDED -----
FS[07:13] Landing Rate: -226.07 fpm
FS[07:13] GS: 1 knots
FS[07:13] TAS: 5 knots
FS[07:13] IAS: 5 knots
FS[07:13] VS: -223 fpm
FS[07:13] FOB: 767 lbs
FS[07:13] Heading: 359°
FS[07:13] Pitch: 1°
FS[07:13] Bank: -1°
FS[07:13] Aircraft Weight: 3605.76 lbs
FS[07:13] Nearest Airport: Z71
FS[07:13] Distance: 0.05 miles
FS[07:13] Runway: ???
FS[07:13] Ground Surface: Water
FS[07:13] Ground Condition: Normal
FS[07:13] NOTE: Weather Report
FS[07:13] Wind Heading: 18°
FS[07:13] Wind Speed: 5 knots
FS[07:13] OAT: 21° C
FS[07:13] TAT: 21° C
FS[07:13] Precipitation: None
FS[07:13] Dew Point: 14° C
FS[07:13] Visibility: 7 miles
FS[07:13] METAR: No METAR available for Z71.
FS[07:13] View Mode: Virtual Cockpit
FS[07:13] NOTE: Taxi started
FS[07:13] Gate: n/a
FS[07:13] NOTE: Flight Completed
FS[07:13] FS Aircraft: Bell 407 N020MM
FS[07:13] FS Model: B407
FS[07:13] FS Type: Bell
FS[07:13] FOB: 767 lbs
FS[07:13] Fuel Used: 96 lbs
FS[07:13] Flight Time: 00:34:58
FS[07:13] Flight Time (Dawn): 00:00:00
FS[07:13] Flight Time (Day): 00:34:58
FS[07:13] Flight Time (Dusk): 00:00:00
FS[07:13] Flight Time (Night): 00:00:00
FS[07:13] Total Landings: 1
FS[07:13] MaxSim Rate: 0x
FS[07:13] Cigar Box - 1.1.4.0
FS[07:13] ----- Flight Closed -----

Route Map